createdAt,value
2023-03-30T00:04:18.687Z,88.84
2023-03-30T00:14:42.439Z,88.46
2023-03-30T00:25:04.034Z,89.18
2023-03-30T00:35:26.489Z,89.36
2023-03-30T00:45:48.088Z,90.02
2023-03-30T00:56:11.178Z,89.29
2023-03-30T01:06:34.152Z,89.56
2023-03-30T01:16:55.842Z,89.45
2023-03-30T01:27:40.151Z,89.85
2023-03-30T01:38:07.646Z,89.96
2023-03-30T01:48:45.360Z,89.31
2023-03-30T01:59:06.731Z,89.46
2023-03-30T02:09:29.488Z,88.94
2023-03-30T02:19:51.267Z,88.71
2023-03-30T02:30:12.919Z,87.92
2023-03-30T02:40:44.526Z,87.90
2023-03-30T02:51:06.536Z,87.26
2023-03-30T03:01:37.258Z,86.11
2023-03-30T03:11:58.647Z,85.96
2023-03-30T03:22:20.211Z,84.14
2023-03-30T03:32:41.617Z,84.59
2023-03-30T03:43:03.138Z,83.83
2023-03-30T03:53:25.921Z,84.38
2023-03-30T04:03:47.344Z,83.61
2023-03-30T04:14:08.706Z,84.27
2023-03-30T04:24:30.080Z,82.28
2023-03-30T04:34:54.761Z,81.96
2023-03-30T04:45:18.402Z,80.88
2023-03-30T04:55:39.782Z,80.42
2023-03-30T05:06:01.146Z,79.56
2023-03-30T05:16:22.697Z,80.33
2023-03-30T05:26:44.170Z,80.32
2023-03-30T05:37:05.516Z,80.03
2023-03-30T05:47:28.804Z,79.11
2023-03-30T05:57:50.219Z,79.82
2023-03-30T06:08:11.983Z,79.07
2023-03-30T06:18:33.516Z,80.18
2023-03-30T06:28:54.973Z,80.80
2023-03-30T06:39:17.163Z,79.44
2023-03-30T06:49:38.721Z,79.72
2023-03-30T07:00:00.133Z,79.76
2023-03-30T07:10:22.029Z,79.14
2023-03-30T07:20:44.571Z,78.75
2023-03-30T07:31:07.600Z,78.41
2023-03-30T07:41:29.404Z,77.88
2023-03-30T07:51:51.699Z,78.62
2023-03-30T08:02:14.296Z,77.97
2023-03-30T08:12:36.490Z,78.57
2023-03-30T08:22:57.907Z,79.03
2023-03-30T08:33:19.448Z,79.14
2023-03-30T08:43:53.265Z,77.85
2023-03-30T08:54:18.875Z,73.97
2023-03-30T09:05:01.778Z,74.19
2023-03-30T09:15:26.338Z,76.72
2023-03-30T09:25:51.115Z,77.88
2023-03-30T09:36:17.280Z,76.52
2023-03-30T09:46:38.840Z,75.93
2023-03-30T09:57:00.376Z,77.66
2023-03-30T10:07:24.862Z,77.59
2023-03-30T10:17:48.066Z,75.82
2023-03-30T10:28:17.155Z,84.02
2023-03-30T10:38:40.723Z,86.82
2023-03-30T10:49:07.075Z,84.38
2023-03-30T10:59:39.457Z,77.78
2023-03-30T11:10:06.105Z,76.74
2023-03-30T11:20:33.470Z,74.71
2023-03-30T11:30:58.531Z,72.78
2023-03-30T11:41:23.867Z,71.52
2023-03-30T11:52:05.400Z,70.73
2023-03-30T12:02:29.953Z,68.72
2023-03-30T12:12:53.966Z,65.37
2023-03-30T12:23:26.059Z,65.38
2023-03-30T12:34:05.502Z,64.18
2023-03-30T12:44:32.394Z,67.56
2023-03-30T12:54:53.722Z,66.46
2023-03-30T13:05:35.013Z,67.55
2023-03-30T13:15:57.878Z,64.01
2023-03-30T13:26:34.586Z,66.99
2023-03-30T13:37:26.028Z,67.16
2023-03-30T13:47:47.432Z,63.69
2023-03-30T13:58:21.019Z,59.25
2023-03-30T14:08:45.102Z,63.52
2023-03-30T14:19:26.250Z,63.31
2023-03-30T14:29:51.768Z,62.59
2023-03-30T14:40:17.107Z,63.38
2023-03-30T14:50:38.631Z,60.41
2023-03-30T15:01:01.108Z,60.94
2023-03-30T15:11:23.926Z,62.38
2023-03-30T15:21:45.399Z,62.50
2023-03-30T15:32:11.532Z,61.74
2023-03-30T15:42:33.366Z,64.29
2023-03-30T15:52:59.856Z,65.90
2023-03-30T16:03:41.724Z,66.53
2023-03-30T16:14:04.433Z,66.79
2023-03-30T16:24:25.890Z,66.15
2023-03-30T16:34:47.314Z,68.16
2023-03-30T16:45:08.817Z,68.31
2023-03-30T16:55:30.352Z,68.60
2023-03-30T17:05:51.807Z,69.63
2023-03-30T17:16:14.124Z,69.91
2023-03-30T17:26:35.679Z,70.14
2023-03-30T17:36:57.105Z,70.13
2023-03-30T17:47:18.462Z,71.05
2023-03-30T17:57:39.882Z,70.87
2023-03-30T18:08:01.388Z,70.98
2023-03-30T18:18:24.832Z,71.12
2023-03-30T18:28:46.459Z,72.26
2023-03-30T18:39:18.519Z,73.50
2023-03-30T18:49:39.895Z,74.96
2023-03-30T19:00:02.433Z,75.07
2023-03-30T19:10:28.021Z,76.08
2023-03-30T19:20:50.647Z,76.77
2023-03-30T19:31:15.689Z,78.38
2023-03-30T19:41:37.277Z,78.34
2023-03-30T19:51:58.630Z,79.18
2023-03-30T20:02:20.538Z,79.01
2023-03-30T20:12:41.954Z,78.59
2023-03-30T20:23:04.019Z,78.73
2023-03-30T20:33:25.548Z,77.72
2023-03-30T20:43:56.242Z,76.65
2023-03-30T20:54:18.627Z,77.29
2023-03-30T21:04:39.994Z,75.35
2023-03-30T21:15:01.401Z,75.68
2023-03-30T21:25:22.736Z,75.55
2023-03-30T21:35:47.854Z,76.06
2023-03-30T21:46:11.429Z,76.28
2023-03-30T21:56:32.820Z,75.76
2023-03-30T22:06:55.312Z,75.95
2023-03-30T22:17:18.633Z,76.73
2023-03-30T22:27:40.032Z,76.36
2023-03-30T22:38:01.398Z,76.38
2023-03-30T22:48:22.848Z,76.42
2023-03-30T22:58:44.224Z,76.74
2023-03-30T23:09:06.690Z,76.58
2023-03-30T23:19:29.156Z,77.18
2023-03-30T23:29:50.536Z,76.56
2023-03-30T23:40:12.521Z,77.23
2023-03-30T23:50:35.631Z,76.59
